Time;durP1;ratioP1;P1;durP2;ratioP2;P2;SDS_P1;SDS_P2;PMS_P1;PMS_P2;Temp;Humidity;BMP_temperature;BMP_pressure;BME280_temperature;BME280_humidity;BME280_pressure;Samples;Min_cycle;Max_cycle;Signal;HPM_P1;HPM_P2
2022/03/08 00:00:25;;;;;;;4.18;2.65;;;1.00;99.90;;;;;;5019857;28;20094;-73
2022/03/08 00:02:51;;;;;;;1.65;1.55;;;1.00;99.90;;;;;;5030029;28;20048;-73
2022/03/08 00:05:18;;;;;;;0.70;0.70;;;1.00;99.90;;;;;;5012646;28;20040;-73
2022/03/08 00:07:45;;;;;;;1.70;1.17;;;0.90;99.90;;;;;;5013435;28;20051;-73
2022/03/08 00:10:11;;;;;;;0.93;0.93;;;0.80;99.90;;;;;;5005049;28;20118;-73
2022/03/08 00:12:37;;;;;;;2.42;2.00;;;0.80;99.90;;;;;;5027331;28;20036;-73
2022/03/08 00:15:07;;;;;;;1.20;1.20;;;0.60;99.90;;;;;;5010212;28;20052;-73
2022/03/08 00:17:32;;;;;;;0.93;0.93;;;0.50;99.90;;;;;;5031486;28;20382;-73
2022/03/08 00:19:58;;;;;;;1.48;1.13;;;0.50;99.90;;;;;;5015081;28;20037;-73
2022/03/08 00:22:24;;;;;;;0.52;0.52;;;0.50;99.90;;;;;;5014291;28;20103;-72
2022/03/08 00:24:49;;;;;;;1.73;1.63;;;0.40;99.90;;;;;;5012344;28;20106;-73
2022/03/08 00:27:15;;;;;;;1.75;1.65;;;0.30;99.90;;;;;;5040822;28;20045;-74
2022/03/08 00:29:43;;;;;;;0.40;0.40;;;0.20;99.90;;;;;;5015145;28;20406;-73
2022/03/08 00:32:09;;;;;;;0.60;0.60;;;0.10;99.90;;;;;;5012387;28;20119;-74
2022/03/08 00:34:35;;;;;;;2.55;2.20;;;0.00;99.90;;;;;;5018746;28;20120;-74
2022/03/08 00:37:00;;;;;;;1.60;1.50;;;-0.10;99.90;;;;;;5011354;28;20151;-74
2022/03/08 00:39:26;;;;;;;2.33;2.13;;;-0.10;99.90;;;;;;5017223;28;20095;-74
2022/03/08 00:41:51;;;;;;;1.48;1.38;;;-0.20;99.90;;;;;;5011220;28;20827;-73
2022/03/08 00:44:17;;;;;;;3.30;2.58;;;-0.20;99.90;;;;;;5011034;28;20341;-74
2022/03/08 00:46:43;;;;;;;2.63;2.42;;;-0.20;99.90;;;;;;5004835;28;20506;-73
2022/03/08 00:49:08;;;;;;;2.85;1.95;;;-0.30;99.90;;;;;;5025754;28;20045;-73
2022/03/08 00:51:34;;;;;;;2.17;1.95;;;-0.30;99.90;;;;;;5023307;28;20486;-73
2022/03/08 00:53:59;;;;;;;1.23;1.23;;;-0.30;99.90;;;;;;5008759;28;20044;-72
2022/03/08 00:56:25;;;;;;;0.80;0.80;;;-0.20;99.90;;;;;;5007653;28;20559;-73
2022/03/08 00:58:52;;;;;;;1.70;1.60;;;-0.20;99.90;;;;;;5016516;28;20037;-73
2022/03/08 01:01:17;;;;;;;0.80;0.80;;;-0.30;99.90;;;;;;4997780;28;20041;-73
2022/03/08 01:03:43;;;;;;;0.50;0.50;;;-0.30;99.90;;;;;;4997502;28;20195;-73
2022/03/08 01:06:08;;;;;;;0.40;0.40;;;-0.30;99.90;;;;;;5026177;28;20154;-73
2022/03/08 01:08:34;;;;;;;0.50;0.50;;;-0.40;99.90;;;;;;5043876;28;20123;-73
2022/03/08 01:11:00;;;;;;;1.33;1.25;;;-0.40;99.90;;;;;;4992544;28;20413;-73
2022/03/08 01:13:25;;;;;;;1.20;1.10;;;-0.50;99.90;;;;;;5012977;28;20056;-73
2022/03/08 01:15:51;;;;;;;1.98;1.88;;;-0.50;99.90;;;;;;5009130;28;20051;-72
2022/03/08 01:18:16;;;;;;;2.60;2.35;;;-0.40;99.90;;;;;;5000348;28;20476;-73
2022/03/08 01:20:42;;;;;;;3.63;3.00;;;-0.30;99.90;;;;;;5005136;28;20477;-73
2022/03/08 01:23:08;;;;;;;2.28;2.10;;;-0.30;99.90;;;;;;5023263;28;20051;-73
2022/03/08 01:25:34;;;;;;;2.88;2.38;;;-0.30;99.90;;;;;;5017428;28;20507;-73
2022/03/08 01:27:59;;;;;;;2.03;1.92;;;-0.20;99.90;;;;;;5011899;28;20473;-73
2022/03/08 01:30:26;;;;;;;3.67;2.75;;;-0.20;99.90;;;;;;5005290;28;20048;-73
2022/03/08 01:32:52;;;;;;;2.65;2.45;;;-0.20;99.90;;;;;;5009022;28;20041;-73
2022/03/08 01:35:18;;;;;;;0.40;0.40;;;-0.20;99.90;;;;;;5008741;28;20056;-73
2022/03/08 01:37:44;;;;;;;1.77;1.67;;;-0.20;99.90;;;;;;5013532;28;20525;-73
2022/03/08 01:40:14;;;;;;;4.72;3.50;;;-0.20;99.90;;;;;;5008638;28;20049;-73
2022/03/08 01:42:41;;;;;;;4.30;3.17;;;-0.20;99.90;;;;;;5010032;28;20475;-73
2022/03/08 01:45:07;;;;;;;3.53;3.10;;;-0.20;99.90;;;;;;5027210;28;20083;-73
2022/03/08 01:47:33;;;;;;;2.33;2.13;;;-0.20;99.90;;;;;;5036138;28;20045;-73
2022/03/08 01:49:59;;;;;;;3.90;3.22;;;-0.10;99.90;;;;;;5011470;28;20043;-73
2022/03/08 01:52:25;;;;;;;8.07;3.28;;;-0.10;99.90;;;;;;5001755;28;20041;-73
2022/03/08 01:54:52;;;;;;;4.47;3.53;;;-0.10;99.90;;;;;;5000087;28;20141;-73
2022/03/08 01:57:19;;;;;;;11.77;3.30;;;-0.10;99.90;;;;;;5011502;28;20063;-73
2022/03/08 01:59:45;;;;;;;2.42;2.20;;;-0.10;99.90;;;;;;5026497;28;20142;-73
2022/03/08 02:02:11;;;;;;;2.95;2.30;;;-0.10;99.90;;;;;;5027641;28;20200;-73
2022/03/08 02:04:37;;;;;;;2.70;2.50;;;0.00;99.90;;;;;;5008775;28;20068;-73
2022/03/08 02:07:04;;;;;;;3.97;3.03;;;-0.10;99.90;;;;;;5012782;28;20490;-73
2022/03/08 02:09:30;;;;;;;1.15;1.00;;;-0.10;99.90;;;;;;5021566;28;20451;-73
2022/03/08 02:11:56;;;;;;;3.63;2.63;;;-0.10;99.90;;;;;;5000235;28;20041;-72
2022/03/08 02:14:21;;;;;;;2.40;2.20;;;-0.10;99.90;;;;;;5045245;28;20520;-73
2022/03/08 02:16:47;;;;;;;3.75;2.28;;;-0.10;99.90;;;;;;5027411;28;20033;-73
2022/03/08 02:19:14;;;;;;;3.45;2.50;;;0.00;99.90;;;;;;5005725;28;20534;-73
2022/03/08 02:21:40;;;;;;;1.00;1.00;;;-0.10;99.90;;;;;;5022309;28;20044;-73
2022/03/08 02:24:06;;;;;;;5.25;2.90;;;-0.10;99.90;;;;;;5019253;28;20048;-73
2022/03/08 02:26:32;;;;;;;2.90;2.25;;;-0.10;99.90;;;;;;5026497;28;20052;-73
2022/03/08 02:29:00;;;;;;;0.73;0.73;;;-0.10;99.90;;;;;;5015686;28;20033;-73
2022/03/08 02:31:25;;;;;;;0.60;0.60;;;-0.20;99.90;;;;;;5016008;28;20052;-73
2022/03/08 02:33:51;;;;;;;1.60;1.50;;;-0.20;99.90;;;;;;4997640;28;20033;-73
2022/03/08 02:36:17;;;;;;;3.60;0.93;;;-0.30;99.90;;;;;;5002488;28;20092;-72
2022/03/08 02:38:43;;;;;;;1.15;1.15;;;-0.40;99.90;;;;;;5016519;28;20116;-73
2022/03/08 02:41:08;;;;;;;5.18;2.83;;;-0.50;99.90;;;;;;4998506;28;20045;-73
2022/03/08 02:43:34;;;;;;;0.50;0.50;;;-0.50;99.90;;;;;;4987603;28;20052;-73
2022/03/08 02:46:00;;;;;;;0.80;0.80;;;-0.60;99.90;;;;;;5001706;28;20041;-73
2022/03/08 02:48:27;;;;;;;0.80;0.80;;;-0.60;99.90;;;;;;4982352;28;20041;-73
2022/03/08 02:50:53;;;;;;;2.80;2.60;;;-0.60;99.90;;;;;;4995770;28;20038;-73
2022/03/08 02:53:18;;;;;;;0.70;0.70;;;-0.60;99.90;;;;;;4974663;28;20045;-73
2022/03/08 02:55:44;;;;;;;0.60;0.60;;;-0.60;99.90;;;;;;5015459;28;20042;-73
2022/03/08 02:58:10;;;;;;;1.20;1.13;;;-0.60;99.90;;;;;;5021577;28;20041;-73
2022/03/08 03:00:36;;;;;;;2.65;2.40;;;-0.70;99.90;;;;;;5020822;28;20050;-73
2022/03/08 03:03:02;;;;;;;1.30;1.08;;;-0.60;99.90;;;;;;4991557;28;20690;-73
2022/03/08 03:05:27;;;;;;;1.90;1.80;;;-0.60;99.90;;;;;;5010246;28;20041;-73
2022/03/08 03:07:53;;;;;;;0.98;0.98;;;-0.60;99.90;;;;;;5011358;28;20045;-73
2022/03/08 03:10:20;;;;;;;2.35;2.15;;;-0.60;99.90;;;;;;5000619;28;20589;-73
2022/03/08 03:12:47;;;;;;;2.67;0.73;;;-0.60;99.90;;;;;;4978440;28;20045;-73
2022/03/08 03:15:15;;;;;;;1.92;1.67;;;-0.60;99.90;;;;;;4996674;28;20087;-72
2022/03/08 03:17:41;;;;;;;1.88;1.77;;;-0.60;99.90;;;;;;4994200;28;20464;-73
2022/03/08 03:20:12;;;;;;;0.63;0.63;;;-0.60;99.90;;;;;;4999053;28;20064;-73
2022/03/08 03:22:38;;;;;;;0.50;0.50;;;-0.70;99.90;;;;;;5023961;28;20047;-72
2022/03/08 03:25:06;;;;;;;0.60;0.60;;;-0.70;99.90;;;;;;4982568;28;20045;-73
2022/03/08 03:27:31;;;;;;;1.83;1.70;;;-0.70;99.90;;;;;;4994405;28;20379;-72
2022/03/08 03:29:57;;;;;;;3.00;1.50;;;-0.70;99.90;;;;;;5020170;28;20040;-73
2022/03/08 03:32:23;;;;;;;3.40;2.25;;;-0.80;99.90;;;;;;5010927;28;20030;-72
2022/03/08 03:34:49;;;;;;;4.32;3.17;;;-0.70;99.90;;;;;;4995716;28;20088;-72
2022/03/08 03:37:15;;;;;;;4.75;2.45;;;-0.70;99.90;;;;;;5009963;28;20061;-72
2022/03/08 03:39:41;;;;;;;3.42;3.10;;;-0.60;99.90;;;;;;5008093;28;20229;-73
2022/03/08 03:42:07;;;;;;;4.95;1.85;;;-0.60;99.90;;;;;;5015026;28;20041;-72
2022/03/08 03:44:32;;;;;;;3.92;3.10;;;-0.60;99.90;;;;;;5026837;28;20033;-72
2022/03/08 03:46:58;;;;;;;11.10;4.55;;;-0.50;99.90;;;;;;5027197;28;20108;-73
2022/03/08 03:49:24;;;;;;;7.47;3.88;;;-0.50;99.90;;;;;;5001155;28;20041;-73
2022/03/08 03:51:51;;;;;;;12.27;3.88;;;-0.40;99.90;;;;;;5009500;28;20044;-73
2022/03/08 03:54:20;;;;;;;10.68;4.07;;;-0.40;99.90;;;;;;5004664;28;20039;-73
2022/03/08 03:56:46;;;;;;;3.05;2.28;;;-0.50;99.90;;;;;;5004774;28;20056;-73
2022/03/08 03:59:12;;;;;;;2.80;2.55;;;-0.50;99.90;;;;;;4999449;28;20045;-73
2022/03/08 04:01:38;;;;;;;0.90;0.90;;;-0.50;99.90;;;;;;5008844;28;20103;-72
2022/03/08 04:04:04;;;;;;;2.33;1.92;;;-0.50;99.90;;;;;;5005992;28;20081;-73
2022/03/08 04:06:29;;;;;;;5.10;3.70;;;-0.50;99.90;;;;;;5006442;28;20076;-73
2022/03/08 04:08:55;;;;;;;3.25;2.00;;;-0.60;99.90;;;;;;5008238;28;20044;-72
2022/03/08 04:11:20;;;;;;;5.00;3.88;;;-0.60;99.90;;;;;;4990030;28;20042;-72
2022/03/08 04:13:46;;;;;;;5.82;3.72;;;-0.50;99.90;;;;;;4990790;28;20611;-72
2022/03/08 04:16:11;;;;;;;6.70;3.65;;;-0.50;99.90;;;;;;5002030;28;20045;-72
2022/03/08 04:18:37;;;;;;;10.43;2.85;;;-0.50;99.90;;;;;;4990963;28;20336;-72
2022/03/08 04:21:03;;;;;;;6.03;3.92;;;-0.50;99.90;;;;;;4997125;28;20046;-72
2022/03/08 04:23:29;;;;;;;1.65;1.55;;;-0.60;99.90;;;;;;5008468;28;20048;-72
2022/03/08 04:25:54;;;;;;;5.57;3.42;;;-0.60;99.90;;;;;;5004955;28;20532;-72
2022/03/08 04:28:20;;;;;;;0.98;0.98;;;-0.60;99.90;;;;;;4986747;28;20065;-72
2022/03/08 04:30:46;;;;;;;1.00;0.95;;;-0.60;99.90;;;;;;5009761;28;20494;-72
2022/03/08 04:33:12;;;;;;;1.40;1.30;;;-0.70;99.90;;;;;;5005217;28;20075;-73
2022/03/08 04:35:38;;;;;;;1.98;1.88;;;-0.70;99.90;;;;;;5026308;28;20037;-72
2022/03/08 04:38:04;;;;;;;9.20;4.75;;;-0.70;99.90;;;;;;5004665;28;20082;-72
2022/03/08 04:40:29;;;;;;;7.10;4.70;;;-0.70;99.90;;;;;;5018158;28;20081;-72
2022/03/08 04:42:55;;;;;;;2.95;2.70;;;-0.70;99.90;;;;;;4993347;28;20076;-72
2022/03/08 04:45:21;;;;;;;9.65;3.88;;;-0.70;99.90;;;;;;5003777;28;20084;-72
2022/03/08 04:47:47;;;;;;;8.98;5.25;;;-0.60;99.90;;;;;;4993290;28;20056;-72
2022/03/08 04:50:15;;;;;;;2.83;1.45;;;-0.60;99.90;;;;;;5001027;28;20081;-73
2022/03/08 04:52:41;;;;;;;3.25;2.00;;;-0.60;99.90;;;;;;5008972;28;20049;-73
2022/03/08 04:55:07;;;;;;;8.30;5.05;;;-0.60;99.90;;;;;;4992768;28;20402;-73
2022/03/08 04:57:33;;;;;;;1.65;1.55;;;-0.60;99.90;;;;;;5009233;28;20513;-73
2022/03/08 04:59:59;;;;;;;3.80;2.67;;;-0.60;99.90;;;;;;5008920;28;20112;-72
2022/03/08 05:02:25;;;;;;;3.90;3.33;;;-0.70;99.90;;;;;;5009235;28;20477;-73
2022/03/08 05:04:50;;;;;;;1.30;1.27;;;-0.70;99.90;;;;;;4991776;28;20111;-72
2022/03/08 05:07:16;;;;;;;3.08;2.70;;;-0.70;99.90;;;;;;4993189;28;20505;-72
2022/03/08 05:09:42;;;;;;;6.25;3.58;;;-0.70;99.90;;;;;;4991453;28;20042;-73
2022/03/08 05:12:08;;;;;;;8.35;3.60;;;-0.70;99.90;;;;;;5008981;28;20044;-73
2022/03/08 05:14:35;;;;;;;7.90;4.00;;;-0.70;99.90;;;;;;4990472;28;20043;-72
2022/03/08 05:17:01;;;;;;;5.10;3.03;;;-0.80;99.90;;;;;;4989769;28;20056;-72
2022/03/08 05:19:27;;;;;;;7.35;4.45;;;-0.80;99.90;;;;;;4989274;28;20129;-72
2022/03/08 05:21:53;;;;;;;4.05;3.10;;;-0.70;99.90;;;;;;4992281;28;20131;-72
2022/03/08 05:24:18;;;;;;;3.97;2.60;;;-0.70;99.90;;;;;;4990290;28;20074;-72
2022/03/08 05:26:44;;;;;;;3.35;1.67;;;-0.70;99.90;;;;;;5006871;28;20046;-72
2022/03/08 05:29:09;;;;;;;6.78;3.30;;;-0.80;99.90;;;;;;5002427;28;20034;-72
2022/03/08 05:31:35;;;;;;;5.88;2.88;;;-0.80;99.90;;;;;;5005473;28;20045;-72
2022/03/08 05:34:01;;;;;;;5.55;3.85;;;-0.90;99.90;;;;;;5012086;28;20037;-72
2022/03/08 05:36:27;;;;;;;6.50;2.55;;;-0.90;99.90;;;;;;4993076;28;20068;-72
2022/03/08 05:38:53;;;;;;;1.63;1.58;;;-1.00;99.90;;;;;;5000928;28;20054;-72
2022/03/08 05:41:19;;;;;;;7.70;3.60;;;-1.00;99.90;;;;;;4991646;28;20045;-72
2022/03/08 05:43:45;;;;;;;2.22;1.75;;;-1.00;99.90;;;;;;4989211;28;20533;-73
2022/03/08 05:46:11;;;;;;;0.95;0.95;;;-1.00;99.90;;;;;;4986652;28;20484;-72
2022/03/08 05:48:37;;;;;;;1.83;1.63;;;-1.00;99.90;;;;;;5004316;28;20030;-73
2022/03/08 05:51:03;;;;;;;4.30;3.25;;;-1.00;99.90;;;;;;5007979;28;20080;-72
2022/03/08 05:53:29;;;;;;;5.93;2.97;;;-1.00;99.90;;;;;;4989707;28;20413;-73
2022/03/08 05:55:54;;;;;;;2.60;2.38;;;-1.10;99.90;;;;;;4995290;28;20208;-72
2022/03/08 05:58:20;;;;;;;1.45;1.35;;;-1.10;99.90;;;;;;4983862;28;20041;-72
2022/03/08 06:00:46;;;;;;;3.53;2.15;;;-1.00;99.90;;;;;;5018830;28;20084;-72
2022/03/08 06:03:19;;;;;;;12.70;4.90;;;-1.00;99.90;;;;;;4989956;28;20369;-72
2022/03/08 06:06:05;;;;;;;11.25;5.53;;;-1.00;99.90;;;;;;5009288;28;20072;-72
2022/03/08 06:08:30;;;;;;;6.18;4.07;;;-0.90;99.90;;;;;;5004561;28;20033;-72
2022/03/08 06:10:56;;;;;;;4.68;4.20;;;-0.80;99.90;;;;;;5008105;28;20041;-72
2022/03/08 06:13:21;;;;;;;14.57;5.35;;;-0.80;99.90;;;;;;4980366;28;20034;-72
2022/03/08 06:15:47;;;;;;;9.70;4.65;;;-0.80;99.90;;;;;;5008767;28;20037;-72
2022/03/08 06:18:13;;;;;;;6.82;4.28;;;-0.80;99.90;;;;;;5019135;28;20042;-72
2022/03/08 06:20:38;;;;;;;2.35;2.15;;;-0.70;99.90;;;;;;4974692;28;20084;-72
2022/03/08 06:23:04;;;;;;;5.03;3.60;;;-0.70;99.90;;;;;;5038195;28;20046;-72
2022/03/08 06:25:30;;;;;;;4.28;3.13;;;-0.70;99.90;;;;;;5006981;28;20046;-72
2022/03/08 06:27:55;;;;;;;5.15;3.30;;;-0.70;99.90;;;;;;4987267;28;20046;-72
2022/03/08 06:30:21;;;;;;;4.20;2.55;;;-0.60;99.90;;;;;;5005171;28;20067;-72
2022/03/08 06:32:46;;;;;;;1.63;1.52;;;-0.70;99.90;;;;;;5007979;28;20045;-72
2022/03/08 06:35:13;;;;;;;3.55;3.22;;;-0.60;99.90;;;;;;5006727;28;20592;-73
2022/03/08 06:37:39;;;;;;;6.57;4.43;;;-0.60;99.90;;;;;;5009176;28;20174;-72
2022/03/08 06:40:06;;;;;;;1.60;1.50;;;-0.60;99.90;;;;;;5027447;28;20072;-72
2022/03/08 06:42:32;;;;;;;1.33;0.95;;;-0.60;99.90;;;;;;5007382;28;20056;-72
2022/03/08 06:44:57;;;;;;;6.20;3.17;;;-0.60;99.90;;;;;;5025364;28;20041;-72
2022/03/08 06:47:23;;;;;;;3.25;2.42;;;-0.50;99.90;;;;;;5022456;28;20080;-72
2022/03/08 06:49:48;;;;;;;4.05;2.67;;;-0.50;99.90;;;;;;5025343;28;20468;-72
2022/03/08 06:52:14;;;;;;;3.55;2.92;;;-0.50;99.90;;;;;;5024018;28;20043;-72
2022/03/08 06:54:40;;;;;;;4.60;2.55;;;-0.40;99.90;;;;;;5022222;28;20494;-72
2022/03/08 06:57:06;;;;;;;2.13;1.95;;;-0.40;99.90;;;;;;5027254;28;20041;-72
2022/03/08 06:59:32;;;;;;;3.95;3.33;;;-0.30;99.90;;;;;;5026853;28;20532;-72
2022/03/08 07:01:57;;;;;;;4.50;3.67;;;-0.30;99.90;;;;;;5022656;28;20051;-72
2022/03/08 07:04:24;;;;;;;3.47;3.05;;;-0.20;99.90;;;;;;5014088;28;20048;-72
2022/03/08 07:06:50;;;;;;;1.42;1.35;;;-0.20;99.90;;;;;;5026618;28;20045;-73
2022/03/08 07:09:16;;;;;;;4.93;3.80;;;-0.10;99.90;;;;;;5010958;28;20091;-72
2022/03/08 07:11:41;;;;;;;13.95;5.93;;;0.00;99.90;;;;;;5023641;28;20040;-72
2022/03/08 07:14:07;;;;;;;7.20;4.63;;;0.10;99.90;;;;;;5025888;28;20102;-72
2022/03/08 07:16:33;;;;;;;4.18;3.60;;;0.20;99.90;;;;;;5018444;28;20049;-72
2022/03/08 07:18:59;;;;;;;6.03;4.57;;;0.30;99.90;;;;;;5023649;28;20430;-72
2022/03/08 07:21:25;;;;;;;1.13;1.13;;;0.50;99.90;;;;;;5027286;28;20056;-72
2022/03/08 07:23:50;;;;;;;3.17;2.33;;;0.60;99.90;;;;;;5027011;28;20048;-72
2022/03/08 07:26:16;;;;;;;3.88;2.33;;;0.80;99.90;;;;;;4995238;28;20050;-72
2022/03/08 07:28:42;;;;;;;5.20;4.15;;;1.10;99.90;;;;;;5047179;28;20047;-72
2022/03/08 07:31:08;;;;;;;10.55;5.72;;;1.20;99.90;;;;;;5007395;28;20037;-72
2022/03/08 07:33:33;;;;;;;8.77;2.75;;;1.30;99.90;;;;;;5006096;28;20045;-72
2022/03/08 07:35:59;;;;;;;8.23;4.40;;;1.40;99.90;;;;;;5039004;28;20276;-72
2022/03/08 07:38:26;;;;;;;5.65;3.72;;;1.50;99.90;;;;;;5017342;28;20221;-72
2022/03/08 07:40:52;;;;;;;4.63;2.33;;;1.70;99.90;;;;;;5019226;28;20045;-73
2022/03/08 07:43:19;;;;;;;5.63;3.33;;;1.90;99.90;;;;;;4992762;28;20041;-72
2022/03/08 07:45:44;;;;;;;6.22;3.83;;;2.10;99.90;;;;;;4981763;28;20061;-72
2022/03/08 07:48:10;;;;;;;5.53;3.60;;;2.10;99.90;;;;;;5005223;28;20394;-72
2022/03/08 07:50:36;;;;;;;11.32;6.20;;;2.10;99.90;;;;;;5020098;28;20048;-72
2022/03/08 07:53:03;;;;;;;7.75;4.93;;;2.10;99.90;;;;;;5029976;28;20041;-72
2022/03/08 07:55:29;;;;;;;8.35;5.78;;;2.20;99.90;;;;;;5030226;28;20051;-72
2022/03/08 07:57:56;;;;;;;7.65;5.18;;;2.30;99.90;;;;;;5011531;28;20048;-72
2022/03/08 08:00:22;;;;;;;6.38;4.45;;;2.40;99.90;;;;;;5026035;28;20042;-72
2022/03/08 08:02:48;;;;;;;1.90;1.58;;;2.50;99.90;;;;;;5027438;28;20045;-73
2022/03/08 08:05:13;;;;;;;5.38;4.55;;;2.50;99.90;;;;;;5016990;28;20624;-72
2022/03/08 08:07:39;;;;;;;7.03;5.22;;;2.60;99.90;;;;;;5038585;28;20414;-72
2022/03/08 08:10:05;;;;;;;8.48;3.92;;;2.70;99.90;;;;;;5024997;28;20111;-72
2022/03/08 08:12:30;;;;;;;4.88;4.03;;;2.80;99.90;;;;;;5014494;28;20045;-73
2022/03/08 08:14:56;;;;;;;6.68;3.45;;;3.00;99.90;;;;;;4994577;28;20321;-73
2022/03/08 08:17:22;;;;;;;3.63;3.08;;;3.20;99.90;;;;;;5028479;28;20478;-72
2022/03/08 08:19:47;;;;;;;11.15;5.95;;;3.40;99.90;;;;;;5029880;28;20094;-72
2022/03/08 08:22:13;;;;;;;9.50;5.45;;;3.70;99.90;;;;;;5034245;28;20041;-72
2022/03/08 08:24:38;;;;;;;7.50;5.35;;;3.70;99.90;;;;;;5029814;28;20507;-72
2022/03/08 08:27:04;;;;;;;7.30;3.17;;;3.80;99.90;;;;;;5007244;28;20083;-72
2022/03/08 08:29:30;;;;;;;8.98;5.03;;;3.80;99.90;;;;;;5009241;28;20389;-72
2022/03/08 08:31:55;;;;;;;9.07;5.07;;;3.90;99.90;;;;;;4998280;28;20043;-72
2022/03/08 08:34:21;;;;;;;5.30;4.20;;;4.00;99.90;;;;;;5028620;28;20029;-72
2022/03/08 08:36:47;;;;;;;5.15;3.20;;;4.20;99.90;;;;;;5007438;28;20146;-72
2022/03/08 08:39:16;;;;;;;4.28;2.17;;;4.30;99.90;;;;;;5009172;28;20095;-72
2022/03/08 08:41:44;;;;;;;3.35;3.05;;;4.80;99.90;;;;;;5009110;28;20120;-72
2022/03/08 08:44:11;;;;;;;5.38;4.03;;;5.40;99.90;;;;;;5009250;28;20057;-72
2022/03/08 08:46:37;;;;;;;8.80;5.05;;;5.70;99.90;;;;;;4984041;28;20042;-72
2022/03/08 08:49:03;;;;;;;6.35;4.38;;;5.90;99.90;;;;;;4986859;28;20415;-72
2022/03/08 08:51:29;;;;;;;6.50;4.63;;;6.40;99.90;;;;;;4970956;28;20134;-72
2022/03/08 08:53:55;;;;;;;5.68;4.03;;;7.20;99.90;;;;;;5007628;28;20041;-72
2022/03/08 08:56:21;;;;;;;4.10;2.88;;;7.80;99.90;;;;;;5001473;28;20076;-72
2022/03/08 08:58:47;;;;;;;4.55;3.22;;;8.20;96.20;;;;;;4987465;28;20132;-72
2022/03/08 09:01:13;;;;;;;5.78;4.22;;;8.70;97.60;;;;;;4996421;28;20052;-72
2022/03/08 09:03:38;;;;;;;4.40;3.47;;;9.00;94.80;;;;;;5001434;28;20041;-72
2022/03/08 09:06:05;;;;;;;7.82;4.43;;;9.20;91.40;;;;;;4986593;28;20045;-72
2022/03/08 09:08:30;;;;;;;3.08;2.55;;;9.40;89.60;;;;;;4997855;28;20041;-72
2022/03/08 09:10:56;;;;;;;6.53;4.50;;;9.50;85.00;;;;;;5015440;28;20370;-72
2022/03/08 09:13:23;;;;;;;6.35;4.05;;;9.80;85.10;;;;;;4997273;28;20593;-72
2022/03/08 09:15:48;;;;;;;2.72;2.30;;;10.00;79.30;;;;;;5001964;28;20052;-72
2022/03/08 09:18:14;;;;;;;2.22;1.88;;;10.20;84.80;;;;;;5008855;28;20053;-72
2022/03/08 09:20:41;;;;;;;5.80;2.35;;;10.30;84.30;;;;;;5007397;28;20041;-72
2022/03/08 09:23:07;;;;;;;6.40;3.95;;;10.30;79.40;;;;;;5007792;28;20103;-72
2022/03/08 09:25:33;;;;;;;8.27;3.85;;;10.30;75.10;;;;;;5007985;28;20100;-72
2022/03/08 09:28:01;;;;;;;10.77;3.72;;;10.40;75.00;;;;;;5003287;28;20073;-73
2022/03/08 09:30:27;;;;;;;6.57;3.95;;;10.50;76.70;;;;;;4981496;28;20049;-72
2022/03/08 09:32:53;;;;;;;5.60;3.55;;;10.50;68.40;;;;;;5009834;28;20045;-72
2022/03/08 09:35:18;;;;;;;3.97;3.28;;;10.50;71.70;;;;;;5007231;28;20037;-72
2022/03/08 09:37:44;;;;;;;5.40;2.97;;;10.50;67.20;;;;;;5008633;28;20534;-72
2022/03/08 09:40:10;;;;;;;3.75;2.65;;;10.60;69.70;;;;;;4988755;28;20045;-72
2022/03/08 09:42:36;;;;;;;4.35;3.50;;;10.70;70.30;;;;;;4990987;28;20033;-72
2022/03/08 09:45:02;;;;;;;7.50;3.22;;;10.80;68.40;;;;;;4988591;28;20736;-72
2022/03/08 09:47:28;;;;;;;4.85;3.45;;;10.80;69.30;;;;;;5007872;28;20041;-72
2022/03/08 09:49:54;;;;;;;5.07;2.85;;;10.80;67.60;;;;;;4992271;28;20072;-72
2022/03/08 09:52:20;;;;;;;5.03;3.25;;;10.80;64.70;;;;;;5008299;28;20033;-72
2022/03/08 09:54:46;;;;;;;4.00;2.60;;;10.60;63.70;;;;;;5008411;28;20048;-72
2022/03/08 09:57:14;;;;;;;8.45;3.05;;;10.70;65.70;;;;;;4992042;28;20049;-72
2022/03/08 09:59:40;;;;;;;5.47;3.15;;;10.70;65.70;;;;;;4998728;28;20264;-72
2022/03/08 10:02:07;;;;;;;4.70;3.40;;;10.60;62.80;;;;;;5013915;28;20270;-72
2022/03/08 10:04:32;;;;;;;5.32;3.53;;;10.50;61.20;;;;;;5007449;28;20490;-72
2022/03/08 10:06:58;;;;;;;5.28;3.45;;;10.40;62.70;;;;;;5001120;28;20053;-72
2022/03/08 10:09:25;;;;;;;4.68;3.30;;;10.40;63.80;;;;;;4988890;28;20502;-72
2022/03/08 10:11:55;;;;;;;7.15;3.22;;;10.50;63.70;;;;;;4988625;28;20052;-72
2022/03/08 10:14:39;;;;;;;2.45;1.67;;;10.40;62.30;;;;;;5005625;28;20052;-72
2022/03/08 10:17:06;;;;;;;2.33;2.05;;;10.40;62.60;;;;;;4999796;28;20050;-72
2022/03/08 10:19:47;;;;;;;3.15;2.65;;;10.40;62.90;;;;;;5000573;28;20053;-72
2022/03/08 10:22:24;;;;;;;5.85;3.67;;;10.50;64.10;;;;;;5007792;28;20037;-72
2022/03/08 10:24:50;;;;;;;5.88;2.72;;;10.50;63.10;;;;;;5007714;28;20781;-72
2022/03/08 10:27:16;;;;;;;3.72;2.38;;;10.40;62.70;;;;;;5007204;28;20045;-72
2022/03/08 10:29:42;;;;;;;6.90;2.70;;;10.30;63.20;;;;;;5006690;28;20119;-72
2022/03/08 10:32:17;;;;;;;3.35;2.97;;;10.10;63.00;;;;;;5008408;28;20633;-72
2022/03/08 10:34:48;;;;;;;5.28;3.10;;;10.10;59.70;;;;;;4984659;28;20072;-72
2022/03/08 10:37:20;;;;;;;8.10;3.53;;;10.00;60.40;;;;;;4990292;28;20064;-72
2022/03/08 10:39:49;;;;;;;3.53;2.40;;;10.00;62.80;;;;;;5006705;28;20158;-72
2022/03/08 10:42:29;;;;;;;6.28;3.33;;;10.10;61.30;;;;;;5007194;28;20041;-73
2022/03/08 10:45:09;;;;;;;3.75;2.33;;;10.20;62.40;;;;;;5011064;28;20056;-72
2022/03/08 10:47:53;;;;;;;2.55;2.10;;;10.20;58.20;;;;;;5004293;28;20056;-72
2022/03/08 10:50:23;;;;;;;5.10;2.60;;;10.30;59.90;;;;;;5020631;28;20044;-72
2022/03/08 10:52:52;;;;;;;3.97;2.47;;;10.30;56.30;;;;;;5007560;28;20115;-72
2022/03/08 10:55:29;;;;;;;3.83;2.40;;;10.40;60.30;;;;;;5008759;28;20041;-72
2022/03/08 10:58:12;;;;;;;2.63;2.22;;;10.50;59.70;;;;;;5020790;28;20041;-72
2022/03/08 11:00:46;;;;;;;3.87;2.27;;;10.60;59.50;;;;;;4994378;28;20044;-72
2022/03/08 11:03:14;;;;;;;4.63;2.70;;;10.70;58.60;;;;;;5016427;28;20652;-72
2022/03/08 11:05:55;;;;;;;3.08;1.98;;;10.70;58.10;;;;;;5007554;28;20465;-72
2022/03/08 11:08:22;;;;;;;3.08;2.63;;;10.80;58.70;;;;;;4984689;28;20390;-72
2022/03/08 11:10:48;;;;;;;4.47;2.67;;;10.90;58.30;;;;;;5008130;28;20044;-72
2022/03/08 11:13:16;;;;;;;7.22;2.50;;;11.00;55.60;;;;;;4993290;28;20280;-72
2022/03/08 11:15:45;;;;;;;5.25;3.25;;;10.90;53.40;;;;;;4997181;28;20046;-72
2022/03/08 11:18:13;;;;;;;3.50;2.42;;;10.90;54.30;;;;;;5009692;28;20654;-71
2022/03/08 11:20:42;;;;;;;3.78;2.75;;;10.80;55.90;;;;;;5010273;28;20088;-72
2022/03/08 11:23:09;;;;;;;6.38;3.25;;;10.90;56.00;;;;;;4994739;28;20405;-71
2022/03/08 11:25:38;;;;;;;3.08;2.03;;;11.00;55.70;;;;;;5007536;28;20041;-71
2022/03/08 11:28:05;;;;;;;2.60;2.40;;;11.00;54.30;;;;;;5007448;28;20073;-72
2022/03/08 11:30:36;;;;;;;5.25;2.85;;;10.90;54.30;;;;;;5006708;28;20049;-72
2022/03/08 11:33:33;;;;;;;3.30;2.15;;;11.00;57.10;;;;;;4977911;28;20069;-72
2022/03/08 11:36:19;;;;;;;5.35;3.20;;;11.00;55.20;;;;;;5009418;28;20085;-72
2022/03/08 11:39:14;;;;;;;3.72;2.63;;;11.00;56.10;;;;;;5009130;28;20049;-72
2022/03/08 11:41:40;;;;;;;4.60;2.03;;;11.10;56.40;;;;;;5010985;28;20056;-72
2022/03/08 11:44:06;;;;;;;2.45;2.05;;;11.20;56.40;;;;;;5008161;28;20049;-72
2022/03/08 11:46:32;;;;;;;4.05;2.40;;;11.20;55.80;;;;;;4996326;28;20046;-72
2022/03/08 11:49:04;;;;;;;4.18;2.35;;;11.20;55.30;;;;;;5002614;28;20083;-72
2022/03/08 11:51:31;;;;;;;6.65;2.30;;;11.20;55.10;;;;;;4988443;28;20042;-72
2022/03/08 11:54:09;;;;;;;3.72;2.40;;;11.10;54.30;;;;;;4991103;28;20406;-72
2022/03/08 11:56:49;;;;;;;5.13;2.45;;;11.00;54.40;;;;;;4999047;28;20340;-72
2022/03/08 11:59:15;;;;;;;4.53;3.22;;;11.00;55.20;;;;;;5000558;28;20048;-70
2022/03/08 12:01:41;;;;;;;5.40;3.15;;;11.10;54.20;;;;;;5004541;28;20414;-70
2022/03/08 12:04:10;;;;;;;4.25;1.73;;;11.10;55.30;;;;;;4985102;28;20038;-70
2022/03/08 12:06:36;;;;;;;3.20;2.80;;;11.10;56.30;;;;;;4996687;28;20117;-71
2022/03/08 12:09:13;;;;;;;3.00;2.42;;;11.20;55.40;;;;;;5007001;28;20052;-70
2022/03/08 12:11:40;;;;;;;5.10;2.83;;;11.20;56.00;;;;;;4999248;28;20061;-70
2022/03/08 12:14:15;;;;;;;2.00;1.83;;;11.30;54.70;;;;;;5006852;28;20045;-70
2022/03/08 12:16:43;;;;;;;4.60;2.60;;;11.30;54.90;;;;;;5004012;28;20131;-70
2022/03/08 12:19:11;;;;;;;3.17;2.60;;;11.30;56.60;;;;;;4979951;28;20057;-70
2022/03/08 12:21:40;;;;;;;5.22;2.90;;;11.50;56.40;;;;;;4994969;28;20041;-71
2022/03/08 12:24:18;;;;;;;4.10;3.08;;;11.60;55.70;;;;;;5005940;28;20047;-70
2022/03/08 12:26:55;;;;;;;1.67;1.50;;;11.60;56.10;;;;;;4976903;28;20573;-70
2022/03/08 12:29:23;;;;;;;3.20;2.65;;;11.70;56.00;;;;;;4993137;28;20058;-70
2022/03/08 12:31:57;;;;;;;3.60;2.90;;;11.70;55.70;;;;;;4983402;28;20139;-70
2022/03/08 12:34:46;;;;;;;2.53;1.88;;;11.70;54.00;;;;;;4989113;28;20477;-70
2022/03/08 12:37:27;;;;;;;3.08;2.13;;;11.70;54.00;;;;;;5020429;28;20064;-70
2022/03/08 12:39:52;;;;;;;4.47;2.75;;;11.80;53.90;;;;;;5024887;28;20583;-70
2022/03/08 12:42:38;;;;;;;3.42;2.40;;;11.70;52.40;;;;;;5029458;28;20072;-70
2022/03/08 12:45:12;;;;;;;3.55;2.30;;;11.50;52.70;;;;;;5012636;28;20037;-70
2022/03/08 12:47:54;;;;;;;2.80;1.90;;;11.40;54.40;;;;;;5042387;28;20048;-70